createdAt,value
2023-02-14T00:01:29.759Z,25.73
2023-02-14T00:04:05.418Z,27.98
2023-02-14T00:07:44.071Z,26.95
2023-02-14T00:10:20.524Z,27.45
2023-02-14T00:12:49.694Z,25.27
2023-02-14T00:15:25.557Z,28.63
2023-02-14T00:23:48.736Z,27.23
2023-02-14T00:31:24.862Z,27.77
2023-02-14T00:47:33.720Z,25.40
2023-02-14T00:51:00.998Z,28.67
2023-02-14T00:54:00.379Z,24.77
2023-02-14T00:56:35.459Z,22.25
2023-02-14T01:01:59.341Z,26.63
2023-02-14T01:06:10.376Z,31.63
2023-02-14T01:08:39.236Z,26.52
2023-02-14T01:11:16.029Z,25.02
2023-02-14T01:13:45.500Z,27.02
2023-02-14T01:17:58.047Z,25.35
2023-02-14T01:20:38.472Z,25.52
2023-02-14T01:23:14.325Z,25.23
2023-02-14T01:25:50.312Z,23.65
2023-02-14T01:28:23.345Z,20.80
2023-02-14T01:31:57.766Z,24.30
2023-02-14T01:34:48.334Z,26.92
2023-02-14T01:41:49.879Z,24.70
2023-02-14T01:44:27.677Z,30.58
2023-02-14T01:47:09.008Z,25.05
2023-02-14T01:50:16.242Z,25.65
2023-02-14T01:52:53.640Z,24.13
2023-02-14T01:57:01.734Z,33.83
2023-02-14T02:04:25.028Z,28.67
2023-02-14T02:07:22.505Z,27.02
2023-02-14T02:10:13.565Z,30.60
2023-02-14T02:12:54.271Z,30.35
2023-02-14T02:20:11.673Z,32.75
2023-02-14T02:23:00.016Z,32.35
2023-02-14T02:29:25.528Z,33.53
2023-02-14T02:32:19.485Z,30.35
2023-02-14T02:35:21.666Z,36.35
2023-02-14T02:38:21.265Z,35.65
2023-02-14T02:41:06.767Z,38.90
2023-02-14T02:43:52.077Z,37.15
2023-02-14T02:47:13.382Z,40.08
2023-02-14T02:50:19.521Z,41.53
2023-02-14T02:53:26.079Z,35.77
2023-02-14T02:56:43.145Z,44.63
2023-02-14T02:59:46.820Z,39.20
2023-02-14T03:03:06.697Z,43.75
2023-02-14T03:05:44.378Z,46.55
2023-02-14T03:09:21.010Z,40.70
2023-02-14T03:11:57.539Z,39.78
2023-02-14T03:15:12.513Z,41.03
2023-02-14T03:18:56.057Z,47.25
2023-02-14T03:21:45.616Z,46.08
2023-02-14T03:24:57.828Z,46.80
2023-02-14T03:28:08.034Z,44.42
2023-02-14T03:31:16.493Z,47.00
2023-02-14T03:34:26.730Z,48.05
2023-02-14T03:37:14.086Z,54.40
2023-02-14T03:40:24.431Z,57.90
2023-02-14T03:42:58.446Z,58.67
2023-02-14T03:45:34.664Z,69.75
2023-02-14T03:48:08.864Z,62.65
2023-02-14T03:50:41.785Z,66.82
2023-02-14T03:53:18.625Z,73.22
2023-02-14T03:55:55.767Z,75.45
2023-02-14T03:58:29.163Z,79.10
2023-02-14T04:01:06.398Z,72.60
2023-02-14T04:03:46.515Z,74.97
2023-02-14T04:06:18.377Z,76.88
2023-02-14T04:08:59.747Z,76.93
2023-02-14T04:11:35.797Z,72.78
2023-02-14T04:14:08.201Z,68.60
2023-02-14T04:17:02.546Z,62.90
2023-02-14T04:19:31.457Z,51.85
2023-02-14T04:22:05.954Z,58.95
2023-02-14T04:24:36.733Z,55.05
2023-02-14T04:27:47.475Z,69.28
2023-02-14T04:30:23.567Z,57.30
2023-02-14T04:32:57.981Z,56.30
2023-02-14T04:35:29.732Z,62.17
2023-02-14T04:38:32.537Z,58.97
2023-02-14T04:41:03.142Z,38.08
2023-02-14T04:43:33.842Z,41.55
2023-02-14T04:46:06.345Z,37.35
2023-02-14T04:48:38.377Z,34.38
2023-02-14T04:51:17.081Z,31.58
2023-02-14T04:54:19.602Z,34.85
2023-02-14T04:56:48.042Z,31.67
2023-02-14T04:59:17.610Z,29.23
2023-02-14T05:01:48.583Z,26.50
2023-02-14T05:09:54.903Z,26.38
2023-02-14T05:21:36.024Z,23.70
2023-02-14T05:24:12.375Z,26.88
2023-02-14T05:26:44.509Z,22.58
2023-02-14T05:37:03.749Z,22.13
2023-02-14T05:39:39.511Z,22.85
2023-02-14T05:42:14.566Z,27.65
2023-02-14T05:44:53.528Z,23.65
2023-02-14T05:47:28.658Z,21.88
2023-02-14T05:49:58.948Z,25.98
2023-02-14T05:53:06.120Z,25.25
2023-02-14T05:55:43.211Z,25.60
2023-02-14T05:58:25.237Z,25.05
2023-02-14T06:02:37.275Z,27.10
2023-02-14T06:05:24.240Z,21.20
2023-02-14T06:07:56.245Z,29.42
2023-02-14T06:12:26.882Z,22.23
2023-02-14T06:14:59.763Z,24.80
2023-02-14T06:18:07.213Z,24.08
2023-02-14T06:20:41.098Z,18.85
2023-02-14T06:27:58.959Z,18.42
2023-02-14T06:30:59.971Z,23.23
2023-02-14T06:34:19.424Z,16.83
2023-02-14T06:37:00.278Z,17.17
2023-02-14T06:40:02.048Z,18.15
2023-02-14T06:43:15.150Z,18.83
2023-02-14T06:46:20.275Z,17.45
2023-02-14T06:49:08.314Z,19.88
2023-02-14T06:51:42.629Z,16.77
2023-02-14T06:54:14.809Z,14.82
2023-02-14T06:56:44.315Z,17.50
2023-02-14T06:59:13.865Z,15.95
2023-02-14T07:01:42.803Z,18.08
2023-02-14T07:05:50.408Z,19.73
2023-02-14T07:08:41.941Z,15.73
2023-02-14T07:11:22.848Z,12.85
2023-02-14T07:13:51.292Z,15.40
2023-02-14T07:16:19.547Z,16.05
2023-02-14T07:18:47.647Z,14.45
2023-02-14T07:21:17.248Z,15.65
2023-02-14T07:23:50.202Z,13.15
2023-02-14T07:26:22.484Z,15.70
2023-02-14T07:28:51.961Z,13.38
2023-02-14T07:31:23.754Z,16.40
2023-02-14T07:33:52.474Z,15.27
2023-02-14T07:36:20.520Z,10.60
2023-02-14T07:38:59.124Z,16.65
2023-02-14T07:41:35.699Z,13.70
2023-02-14T07:44:07.322Z,14.43
2023-02-14T07:46:39.581Z,11.68
2023-02-14T07:49:10.757Z,12.20
2023-02-14T07:51:39.478Z,13.20
2023-02-14T07:54:07.644Z,13.30
2023-02-14T07:56:36.121Z,12.40
2023-02-14T07:59:05.524Z,9.82
2023-02-14T08:01:40.624Z,12.32
2023-02-14T08:04:15.453Z,15.57
2023-02-14T08:06:43.453Z,13.55
2023-02-14T08:09:11.982Z,15.48
2023-02-14T08:15:21.495Z,12.82
2023-02-14T08:17:52.132Z,15.05
2023-02-14T08:20:21.719Z,10.10
2023-02-14T08:22:51.883Z,10.50
2023-02-14T08:25:20.280Z,8.85
2023-02-14T08:27:50.912Z,12.05
2023-02-14T08:30:20.140Z,12.57
2023-02-14T08:32:53.829Z,14.95
2023-02-14T08:35:22.799Z,11.80
2023-02-14T08:37:52.024Z,12.48
2023-02-14T08:40:21.054Z,11.77
2023-02-14T08:42:50.755Z,12.20
2023-02-14T08:45:22.694Z,10.95
2023-02-14T08:47:51.733Z,13.73
2023-02-14T08:50:20.261Z,13.55
2023-02-14T08:52:55.625Z,15.05
2023-02-14T08:55:31.061Z,12.25
2023-02-14T08:58:00.909Z,12.75
2023-02-14T09:00:29.865Z,10.70
2023-02-14T09:03:00.438Z,12.63
2023-02-14T09:05:30.907Z,14.35
2023-02-14T09:08:03.287Z,12.65
2023-02-14T09:10:32.049Z,12.25
2023-02-14T09:13:00.437Z,12.18
2023-02-14T09:15:29.910Z,12.80
2023-02-14T09:17:58.939Z,11.30
2023-02-14T09:20:28.789Z,15.30
2023-02-14T09:22:57.671Z,11.57
2023-02-14T09:25:29.934Z,12.35
2023-02-14T09:27:58.215Z,14.43
2023-02-14T09:30:28.055Z,11.20
2023-02-14T09:32:58.908Z,13.93
2023-02-14T09:35:47.109Z,13.65
2023-02-14T09:38:21.043Z,9.20
2023-02-14T09:40:50.624Z,8.32
2023-02-14T09:43:21.411Z,15.23
2023-02-14T09:45:52.818Z,8.75
2023-02-14T09:48:29.849Z,12.65
2023-02-14T09:51:08.904Z,6.88
2023-02-14T09:53:42.793Z,6.43
2023-02-14T09:56:11.769Z,7.72
2023-02-14T09:58:53.788Z,6.53
2023-02-14T10:01:44.156Z,4.53
2023-02-14T10:04:28.290Z,8.73
2023-02-14T10:07:18.551Z,8.52
2023-02-14T10:10:04.216Z,7.20
2023-02-14T10:12:39.262Z,6.07
2023-02-14T10:15:22.428Z,6.10
2023-02-14T10:17:57.096Z,6.65
2023-02-14T10:20:36.762Z,7.45
2023-02-14T10:23:06.355Z,7.18
2023-02-14T10:25:48.827Z,6.63
2023-02-14T10:28:19.185Z,6.60
2023-02-14T10:30:54.783Z,6.57
2023-02-14T10:33:24.040Z,7.22
2023-02-14T10:35:58.593Z,7.20
2023-02-14T10:38:41.216Z,10.05
2023-02-14T10:41:16.401Z,6.60
2023-02-14T10:44:16.062Z,6.53
2023-02-14T10:46:58.978Z,4.75
2023-02-14T10:49:48.851Z,5.72
2023-02-14T10:52:34.492Z,6.47
2023-02-14T10:55:13.929Z,7.93
2023-02-14T10:57:50.069Z,5.28
2023-02-14T11:00:34.565Z,6.47
2023-02-14T11:03:09.089Z,2.45
2023-02-14T11:05:46.668Z,4.85
2023-02-14T11:08:30.379Z,5.28
2023-02-14T11:11:14.508Z,3.28
2023-02-14T11:13:58.736Z,5.03
2023-02-14T11:16:34.352Z,6.57
2023-02-14T11:19:16.431Z,4.40
2023-02-14T11:21:48.721Z,7.43
2023-02-14T11:40:56.639Z,6.28
2023-02-14T11:43:39.684Z,5.03
2023-02-14T11:46:27.329Z,4.93
2023-02-14T11:49:25.252Z,4.95
2023-02-14T11:52:12.994Z,5.28
2023-02-14T11:54:55.429Z,3.30
2023-02-14T11:57:47.088Z,4.75
2023-02-14T12:00:20.708Z,5.68
2023-02-14T12:02:52.372Z,4.82
2023-02-14T12:06:37.437Z,6.25
2023-02-14T12:10:17.742Z,4.72
2023-02-14T12:12:54.826Z,7.03
2023-02-14T12:15:30.025Z,6.32
2023-02-14T12:18:04.173Z,4.85
2023-02-14T12:20:38.705Z,7.53
2023-02-14T12:23:18.747Z,5.32
2023-02-14T12:26:15.410Z,5.07
2023-02-14T12:29:05.727Z,6.13
2023-02-14T12:31:33.932Z,3.63
2023-02-14T12:34:15.265Z,5.20
2023-02-14T12:37:22.352Z,6.00
2023-02-14T12:40:13.078Z,5.57
2023-02-14T12:43:13.874Z,4.35
2023-02-14T12:46:14.182Z,7.10
2023-02-14T12:48:56.780Z,5.18
2023-02-14T12:51:51.248Z,6.75
2023-02-14T12:54:23.763Z,9.18
2023-02-14T12:57:11.401Z,5.30
2023-02-14T12:59:55.136Z,8.13
2023-02-14T13:02:32.186Z,6.43
2023-02-14T13:05:28.713Z,9.50
2023-02-14T13:08:11.442Z,6.13
2023-02-14T13:10:52.504Z,8.65
2023-02-14T13:13:41.338Z,10.98
2023-02-14T13:16:42.256Z,7.38
2023-02-14T13:19:55.419Z,9.60
2023-02-14T13:22:30.838Z,5.55
2023-02-14T13:25:33.784Z,6.68
2023-02-14T13:28:06.890Z,5.63
2023-02-14T13:30:39.029Z,8.60
2023-02-14T13:33:33.929Z,6.38
2023-02-14T13:36:09.412Z,7.90
2023-02-14T13:38:49.556Z,10.82
2023-02-14T13:41:21.969Z,6.75
2023-02-14T13:44:06.062Z,7.43
2023-02-14T13:46:48.551Z,7.38
2023-02-14T13:50:00.928Z,8.10
2023-02-14T13:52:49.010Z,8.38
2023-02-14T13:55:26.474Z,12.43
2023-02-14T13:58:07.092Z,6.70
2023-02-14T14:03:39.024Z,6.70
2023-02-14T14:06:13.144Z,9.07
2023-02-14T14:13:03.777Z,7.97
2023-02-14T14:15:34.104Z,10.55
2023-02-14T14:18:32.088Z,8.82
2023-02-14T14:21:05.393Z,6.15
2023-02-14T14:24:55.185Z,7.38
2023-02-14T14:27:56.812Z,7.47
2023-02-14T14:31:35.756Z,7.97
2023-02-14T14:34:54.033Z,7.68
2023-02-14T14:37:55.548Z,10.38
2023-02-14T14:40:37.088Z,9.38
2023-02-14T14:43:43.913Z,7.63
2023-02-14T14:47:16.371Z,8.00
2023-02-14T14:49:53.733Z,4.63
2023-02-14T14:52:38.356Z,6.50
2023-02-14T14:55:16.763Z,7.35
2023-02-14T14:58:37.072Z,8.95
2023-02-14T15:01:35.733Z,6.97
2023-02-14T15:04:19.979Z,3.22
2023-02-14T15:07:28.585Z,7.53
2023-02-14T15:09:56.886Z,4.60
2023-02-14T15:12:57.337Z,4.10
2023-02-14T15:15:25.702Z,10.07
2023-02-14T15:17:59.095Z,9.63
2023-02-14T15:20:53.557Z,6.63
2023-02-14T15:23:23.960Z,5.85
2023-02-14T15:26:04.516Z,5.78
2023-02-14T15:28:41.368Z,6.18
2023-02-14T15:31:33.292Z,4.80
2023-02-14T15:36:59.440Z,6.32
2023-02-14T15:39:33.369Z,5.22
2023-02-14T15:42:02.099Z,4.90
2023-02-14T15:44:34.584Z,6.75
2023-02-14T15:47:06.337Z,6.82
2023-02-14T15:49:49.139Z,5.85
2023-02-14T15:52:18.292Z,3.25
2023-02-14T15:54:51.153Z,7.63
2023-02-14T15:57:28.350Z,4.68
2023-02-14T16:00:15.477Z,4.30
2023-02-14T16:03:05.828Z,7.38
2023-02-14T16:06:04.819Z,7.28
2023-02-14T16:09:31.996Z,6.93
2023-02-14T16:12:24.623Z,7.80
2023-02-14T16:15:18.788Z,8.18
2023-02-14T16:17:57.314Z,9.00
2023-02-14T16:20:53.262Z,8.07
2023-02-14T16:24:11.766Z,14.00
2023-02-14T16:26:55.102Z,10.65
2023-02-14T16:29:25.249Z,7.72
2023-02-14T16:32:14.492Z,5.90
2023-02-14T16:34:44.507Z,7.30
2023-02-14T16:37:33.608Z,6.57
2023-02-14T16:40:02.301Z,6.45
2023-02-14T16:42:41.930Z,8.60
2023-02-14T16:45:34.965Z,9.13
2023-02-14T16:48:12.178Z,9.10
2023-02-14T16:50:49.649Z,8.70
2023-02-14T16:53:25.201Z,7.93
2023-02-14T16:55:58.322Z,6.40
2023-02-14T16:58:32.137Z,8.98
2023-02-14T17:01:03.596Z,9.88
2023-02-14T17:03:36.260Z,9.40
2023-02-14T17:06:10.658Z,7.47
2023-02-14T17:08:55.058Z,11.35
2023-02-14T17:11:27.243Z,10.38
2023-02-14T17:13:55.337Z,10.20
2023-02-14T17:16:24.304Z,11.07
2023-02-14T17:18:52.722Z,9.85
2023-02-14T17:21:28.733Z,10.93
2023-02-14T17:23:57.521Z,6.22
2023-02-14T17:26:25.822Z,6.55
2023-02-14T17:29:08.966Z,9.27
2023-02-14T17:31:42.075Z,12.38
2023-02-14T17:34:13.266Z,8.40
2023-02-14T17:36:50.032Z,8.00
2023-02-14T17:39:19.904Z,4.70
2023-02-14T17:41:50.279Z,4.88
2023-02-14T17:44:21.205Z,3.45
2023-02-14T17:46:50.468Z,9.00
2023-02-14T17:49:25.843Z,5.00
2023-02-14T17:51:59.412Z,7.68
2023-02-14T17:54:27.891Z,4.68
2023-02-14T17:57:07.248Z,6.18
2023-02-14T18:00:00.730Z,7.70
2023-02-14T18:02:36.504Z,7.57
2023-02-14T18:05:08.140Z,4.28
2023-02-14T18:07:52.655Z,9.27
2023-02-14T18:10:31.254Z,6.55
2023-02-14T18:13:03.104Z,7.20
2023-02-14T18:15:39.287Z,3.70
2023-02-14T18:18:11.584Z,6.47
2023-02-14T18:20:44.485Z,4.75
2023-02-14T18:23:20.646Z,6.32
2023-02-14T18:28:25.120Z,7.43
2023-02-14T18:31:04.723Z,4.45
2023-02-14T19:17:59.766Z,16.17
2023-02-14T19:20:28.347Z,7.57
2023-02-14T19:23:00.407Z,12.73
2023-02-14T19:25:29.703Z,9.13
2023-02-14T19:28:42.338Z,6.65
2023-02-14T19:31:39.680Z,6.32
2023-02-14T19:34:34.007Z,6.80
2023-02-14T19:40:16.515Z,9.32
2023-02-14T19:43:44.204Z,5.68
2023-02-14T20:56:25.303Z,2.78
2023-02-14T20:59:33.989Z,4.82
2023-02-14T21:02:05.104Z,4.70
2023-02-14T21:04:38.615Z,2.92
2023-02-14T21:07:10.368Z,2.20
2023-02-14T21:10:00.925Z,3.55
2023-02-14T21:12:34.183Z,3.42
2023-02-14T21:15:07.858Z,4.57
2023-02-14T21:17:38.148Z,1.98
2023-02-14T21:20:07.621Z,3.42
2023-02-14T21:23:00.995Z,3.15
2023-02-14T21:25:57.793Z,1.65
2023-02-14T21:28:28.939Z,2.47
2023-02-14T21:31:06.079Z,2.25
2023-02-14T21:33:37.836Z,4.70
2023-02-14T21:36:24.588Z,4.18
2023-02-14T21:39:07.296Z,3.58
2023-02-14T21:41:40.415Z,1.95
2023-02-14T21:44:32.905Z,4.35
2023-02-14T21:47:45.540Z,2.88
2023-02-14T21:50:32.723Z,5.25
2023-02-14T21:53:01.285Z,3.65
2023-02-14T21:55:32.207Z,2.60
2023-02-14T21:58:02.554Z,3.70
2023-02-14T22:00:58.831Z,2.58
2023-02-14T22:03:26.909Z,3.83
2023-02-14T22:06:05.702Z,2.95
2023-02-14T22:08:39.724Z,5.88
2023-02-14T22:11:08.950Z,3.05
2023-02-14T22:13:37.118Z,3.22
2023-02-14T22:16:08.978Z,3.03
2023-02-14T22:18:38.466Z,2.65
2023-02-14T22:21:10.731Z,2.17
2023-02-14T22:23:40.051Z,3.50
2023-02-14T22:26:35.480Z,3.03
2023-02-14T22:29:08.280Z,3.33
2023-02-14T22:31:39.178Z,3.35
2023-02-14T22:34:08.753Z,4.13
2023-02-14T22:36:38.475Z,2.28
2023-02-14T22:39:07.820Z,3.95
2023-02-14T22:41:38.067Z,3.60
2023-02-14T22:44:06.519Z,4.65
2023-02-14T22:46:55.450Z,1.85
2023-02-14T22:49:23.344Z,3.30
2023-02-14T22:51:52.055Z,2.40
2023-02-14T22:54:20.161Z,3.40
2023-02-14T22:56:51.542Z,4.57
2023-02-14T22:59:24.503Z,3.20
2023-02-14T23:01:52.888Z,4.03
2023-02-14T23:04:22.379Z,2.40
2023-02-14T23:06:53.369Z,2.10
2023-02-14T23:09:21.514Z,2.72
2023-02-14T23:11:49.885Z,2.15
2023-02-14T23:14:37.208Z,3.08
2023-02-14T23:17:25.560Z,2.05
2023-02-14T23:20:12.000Z,2.63
2023-02-14T23:22:40.819Z,2.80
2023-02-14T23:25:11.319Z,1.50
2023-02-14T23:27:43.745Z,2.28
2023-02-14T23:30:16.750Z,1.90
2023-02-14T23:32:45.246Z,7.88
2023-02-14T23:35:14.070Z,2.88
2023-02-14T23:37:43.066Z,4.00
2023-02-14T23:40:12.328Z,3.67
2023-02-14T23:42:42.167Z,1.95
2023-02-14T23:45:31.694Z,3.22
2023-02-14T23:48:05.412Z,1.70
2023-02-14T23:50:35.018Z,3.47
2023-02-14T23:53:06.178Z,3.10
2023-02-14T23:55:34.694Z,2.60
2023-02-14T23:58:02.930Z,1.92
